Time;durP1;ratioP1;P1;durP2;ratioP2;P2;SDS_P1;SDS_P2;PMS_P1;PMS_P2;Temp;Humidity;BMP_temperature;BMP_pressure;BME280_temperature;BME280_humidity;BME280_pressure;Samples;Min_cycle;Max_cycle;Signal;HPM_P1;HPM_P2
2023/02/28 00:01:22;;;;;;;23.20;6.30;;;;;;;4.69;59.37;100164.80;67565;1282;1016774;-59
2023/02/28 00:04:25;;;;;;;23.20;6.60;;;;;;;4.46;59.31;100164.98;67599;1281;1016312;-59
2023/02/28 00:07:27;;;;;;;27.40;6.70;;;;;;;4.31;59.43;100167.77;67591;1282;1016273;-59
2023/02/28 00:10:30;;;;;;;25.00;7.00;;;;;;;4.18;59.89;100167.09;67592;1282;1016359;-60
2023/02/28 00:13:32;;;;;;;26.90;6.40;;;;;;;4.21;59.12;100172.60;67551;1281;1016436;-59
2023/02/28 00:16:35;;;;;;;22.70;6.40;;;;;;;4.21;59.00;100177.62;67546;1281;1016123;-59
2023/02/28 00:19:37;;;;;;;23.70;6.60;;;;;;;4.28;60.22;100177.69;67603;1282;1016760;-59
2023/02/28 00:22:40;;;;;;;27.70;8.30;;;;;;;4.54;59.80;100175.58;67626;1282;1016068;-59
2023/02/28 00:25:42;;;;;;;25.90;7.40;;;;;;;4.62;59.96;100171.66;67577;1282;1016327;-60
2023/02/28 00:28:44;;;;;;;26.30;6.90;;;;;;;4.70;59.24;100168.27;67539;1282;1016427;-59
2023/02/28 00:31:47;;;;;;;23.00;6.30;;;;;;;4.81;59.28;100169.11;67567;1282;1016582;-59
2023/02/28 00:34:49;;;;;;;24.10;6.50;;;;;;;4.84;59.20;100172.73;67597;1282;1016434;-59
2023/02/28 00:37:52;;;;;;;25.10;6.50;;;;;;;4.64;59.77;100171.13;67598;1281;1016407;-59
2023/02/28 00:40:54;;;;;;;27.10;6.80;;;;;;;4.13;60.76;100169.56;67533;1281;1016032;-60
2023/02/28 00:43:57;;;;;;;26.10;6.50;;;;;;;4.00;61.07;100170.60;67535;1282;1016208;-59
2023/02/28 00:46:59;;;;;;;24.90;6.40;;;;;;;3.78;60.85;100173.12;67571;1282;1016608;-60
2023/02/28 00:50:02;;;;;;;25.30;6.60;;;;;;;3.71;61.10;100175.80;67578;1282;1016484;-60
2023/02/28 00:53:04;;;;;;;25.70;6.50;;;;;;;3.72;61.48;100175.79;67539;1282;1016331;-59
2023/02/28 00:56:06;;;;;;;25.40;6.80;;;;;;;3.89;61.22;100171.95;67560;1282;1016366;-60
2023/02/28 00:59:09;;;;;;;27.30;7.50;;;;;;;3.86;61.16;100174.41;67570;1282;1016457;-59
2023/02/28 01:02:11;;;;;;;24.50;7.10;;;;;;;3.73;61.54;100175.61;67566;1282;1016148;-59
2023/02/28 01:05:15;;;;;;;24.40;6.90;;;;;;;3.91;61.34;100175.57;67539;1282;1015960;-59
2023/02/28 01:08:18;;;;;;;26.20;6.50;;;;;;;3.86;61.11;100172.34;67604;1282;1016143;-59
2023/02/28 01:11:20;;;;;;;24.60;7.00;;;;;;;3.65;62.13;100173.63;67602;1282;1016150;-59
2023/02/28 01:14:23;;;;;;;26.00;7.40;;;;;;;3.60;62.57;100174.18;67618;1281;1016123;-60
2023/02/28 01:17:26;;;;;;;;;;;;;;;3.63;62.17;100174.84;67551;1282;1016845;-59
2023/02/28 01:20:28;;;;;;;29.80;8.00;;;;;;;3.78;61.55;100171.39;67583;1282;1016323;-60
2023/02/28 01:23:31;;;;;;;28.30;8.40;;;;;;;3.72;61.43;100170.77;67583;1282;1018308;-59
2023/02/28 01:26:33;;;;;;;31.90;9.50;;;;;;;3.50;61.63;100172.56;67534;1282;1016090;-59
2023/02/28 01:29:35;;;;;;;31.50;8.70;;;;;;;3.44;61.41;100171.41;67513;1281;1016526;-60
2023/02/28 01:32:38;;;;;;;33.00;9.50;;;;;;;3.27;62.10;100173.66;67552;1282;1016340;-59
2023/02/28 01:35:41;;;;;;;29.70;8.60;;;;;;;3.38;61.80;100169.76;67581;1282;1016432;-60
2023/02/28 01:38:43;;;;;;;26.80;8.20;;;;;;;3.64;61.55;100170.16;67526;1282;1016374;-59
2023/02/28 01:41:46;;;;;;;32.40;9.60;;;;;;;3.86;61.44;100167.67;67551;1282;1016445;-60
2023/02/28 01:44:48;;;;;;;30.60;9.40;;;;;;;4.07;60.54;100167.75;67568;1282;1016192;-60
2023/02/28 01:47:51;;;;;;;31.90;9.60;;;;;;;3.79;61.22;100164.64;67552;1282;1016423;-59
2023/02/28 01:50:53;;;;;;;32.20;10.00;;;;;;;3.60;61.84;100167.96;67545;1282;1016507;-60
2023/02/28 01:53:56;;;;;;;31.00;10.50;;;;;;;3.50;62.04;100167.20;67528;1282;1016449;-59
2023/02/28 01:56:58;;;;;;;35.00;10.60;;;;;;;3.55;62.11;100165.08;67552;1282;1016359;-61
2023/02/28 02:00:01;;;;;;;35.30;10.90;;;;;;;3.35;62.56;100167.54;67577;1282;1016376;-59
2023/02/28 02:03:03;;;;;;;35.10;10.40;;;;;;;3.23;62.64;100168.69;67546;1282;1016313;-60
2023/02/28 02:06:05;;;;;;;32.00;10.50;;;;;;;3.10;62.90;100166.39;67539;1282;1016308;-59
2023/02/28 02:09:08;;;;;;;34.10;10.90;;;;;;;3.08;63.06;100166.58;67510;1281;1016138;-60
2023/02/28 02:12:11;;;;;;;33.80;11.20;;;;;;;2.93;63.45;100169.98;67574;1282;1016473;-59
2023/02/28 02:15:13;;;;;;;37.80;10.90;;;;;;;2.87;62.96;100169.34;67550;1282;1018800;-59
2023/02/28 02:18:15;;;;;;;39.30;12.10;;;;;;;2.57;63.46;100173.54;67526;1282;1016172;-59
2023/02/28 02:21:18;;;;;;;35.90;11.60;;;;;;;2.64;63.66;100177.63;67566;1282;1016346;-59
2023/02/28 02:24:20;;;;;;;32.80;10.70;;;;;;;2.76;63.99;100182.39;67575;1282;1016391;-59
2023/02/28 02:27:23;;;;;;;40.20;11.60;;;;;;;2.76;64.05;100183.25;67609;1282;1016571;-59
2023/02/28 02:30:25;;;;;;;39.30;12.20;;;;;;;2.68;63.56;100179.85;67537;1282;1016445;-59
2023/02/28 02:33:28;;;;;;;37.70;11.70;;;;;;;2.85;63.98;100182.83;67530;1282;1016260;-59
2023/02/28 02:36:30;;;;;;;38.00;12.10;;;;;;;2.88;63.59;100188.86;67567;1282;1016971;-59
2023/02/28 02:39:33;;;;;;;35.40;10.90;;;;;;;3.00;63.80;100185.83;67574;1282;1018463;-59
2023/02/28 02:42:35;;;;;;;33.30;10.20;;;;;;;3.08;63.40;100185.75;67529;1282;1016499;-59
2023/02/28 02:45:38;;;;;;;34.40;11.00;;;;;;;3.03;63.12;100184.59;67522;1282;1016444;-59
2023/02/28 02:48:40;;;;;;;36.50;11.10;;;;;;;2.92;63.40;100189.86;67580;1282;1016462;-60
2023/02/28 02:51:43;;;;;;;36.60;12.20;;;;;;;2.81;63.53;100187.54;67578;1282;1017351;-59
2023/02/28 02:54:45;;;;;;;36.40;11.40;;;;;;;2.88;63.71;100188.86;67514;1282;1016440;-59
2023/02/28 02:57:48;;;;;;;34.00;10.40;;;;;;;3.21;63.22;100185.29;67531;1282;1016821;-61
2023/02/28 03:00:50;;;;;;;32.90;10.90;;;;;;;3.25;62.22;100184.92;67572;1282;1016912;-59
2023/02/28 03:03:52;;;;;;;33.40;9.90;;;;;;;3.08;62.95;100187.84;67561;1282;1016264;-60
2023/02/28 03:06:55;;;;;;;32.40;10.40;;;;;;;3.24;63.46;100191.50;67527;1282;1016256;-61
2023/02/28 03:09:58;;;;;;;32.40;10.50;;;;;;;3.26;63.23;100194.59;67540;1282;1016542;-59
2023/02/28 03:13:01;;;;;;;34.20;10.40;;;;;;;3.27;63.14;100193.70;67546;1281;1017435;-60
2023/02/28 03:16:03;;;;;;;34.90;10.40;;;;;;;3.11;63.64;100190.73;67558;1281;1016388;-60
2023/02/28 03:19:06;;;;;;;35.60;10.90;;;;;;;3.15;63.81;100186.21;67544;1281;1016648;-60
2023/02/28 03:22:08;;;;;;;36.30;10.60;;;;;;;3.30;63.88;100186.42;67599;1281;1016400;-61
2023/02/28 03:25:11;;;;;;;32.60;10.70;;;;;;;3.40;62.86;100186.34;67576;1282;1016384;-61
2023/02/28 03:28:13;;;;;;;33.60;10.50;;;;;;;3.11;63.00;100188.33;67555;1281;1016168;-60
2023/02/28 03:31:16;;;;;;;33.20;10.90;;;;;;;2.94;63.96;100190.02;67538;1282;1016420;-59
2023/02/28 03:34:18;;;;;;;31.70;10.30;;;;;;;2.99;64.01;100190.34;67608;1282;1017566;-60
2023/02/28 03:37:21;;;;;;;33.30;12.00;;;;;;;2.99;64.00;100183.75;67613;1282;1016328;-59
2023/02/28 03:40:23;;;;;;;36.10;11.80;;;;;;;2.97;63.57;100188.60;67541;1281;1016086;-60
2023/02/28 03:43:25;;;;;;;34.60;10.40;;;;;;;3.06;64.23;100187.00;67550;1282;1016243;-59
2023/02/28 03:46:28;;;;;;;30.50;10.30;;;;;;;3.26;63.79;100185.08;67556;1282;1017385;-59
2023/02/28 03:49:31;;;;;;;31.80;11.60;;;;;;;3.07;63.48;100184.20;67591;1282;1016570;-59
2023/02/28 03:52:33;;;;;;;34.70;11.10;;;;;;;2.70;63.84;100186.22;67553;1282;1016506;-59
2023/02/28 03:55:36;;;;;;;30.90;10.50;;;;;;;2.53;64.56;100183.23;67546;1282;1016037;-61
2023/02/28 03:58:38;;;;;;;32.80;10.80;;;;;;;2.31;64.70;100184.58;67547;1281;1016853;-59
2023/02/28 04:01:41;;;;;;;33.60;10.60;;;;;;;2.10;64.95;100184.86;67571;1281;1016685;-59
2023/02/28 04:04:48;;;;;;;35.30;11.00;;;;;;;2.03;65.41;100185.92;67560;1282;1016174;-59
2023/02/28 04:07:50;;;;;;;33.30;11.60;;;;;;;2.01;65.06;100188.34;67545;1282;1016661;-59
2023/02/28 04:10:53;;;;;;;32.70;11.50;;;;;;;1.78;65.09;100184.45;67596;1282;1016128;-59
2023/02/28 04:13:55;;;;;;;34.30;10.90;;;;;;;1.66;65.80;100179.48;67590;1282;1016178;-59
2023/02/28 04:16:58;;;;;;;32.20;10.80;;;;;;;1.74;65.91;100181.73;67568;1282;1016854;-59
2023/02/28 04:20:00;;;;;;;31.80;10.90;;;;;;;1.71;65.48;100176.38;67526;1282;1016034;-60
2023/02/28 04:23:03;;;;;;;34.00;11.30;;;;;;;1.58;65.62;100181.08;67564;1261;1016254;-60
2023/02/28 04:26:05;;;;;;;31.50;10.30;;;;;;;1.53;65.92;100186.77;67598;1281;1016368;-59
2023/02/28 04:29:08;;;;;;;;;;;;;;;1.59;66.31;100184.02;67567;1281;1016355;-60
2023/02/28 04:32:10;;;;;;;34.50;11.50;;;;;;;1.66;65.97;100181.73;67547;1281;1016473;-59
2023/02/28 04:35:13;;;;;;;;;;;;;;;1.45;66.09;100186.09;67588;1282;1016414;-60
2023/02/28 04:38:15;;;;;;;35.40;12.50;;;;;;;1.35;66.12;100186.81;67576;1282;1016429;-60
2023/02/28 04:41:18;;;;;;;39.00;15.00;;;;;;;1.33;66.20;100187.50;67581;1281;1016373;-60
2023/02/28 04:44:20;;;;;;;40.00;14.00;;;;;;;1.28;66.21;100195.95;67557;1281;1016291;-60
2023/02/28 04:47:23;;;;;;;;;;;;;;;1.25;66.22;100198.19;67572;1282;1016436;-59
2023/02/28 04:50:25;;;;;;;37.20;13.30;;;;;;;1.13;66.98;100201.64;67593;1282;1015933;-59
2023/02/28 04:53:28;;;;;;;38.20;14.10;;;;;;;1.38;66.50;100204.02;67596;1281;1016494;-59
2023/02/28 04:56:30;;;;;;;42.20;13.70;;;;;;;1.30;67.00;100207.33;67557;1281;1018429;-59
2023/02/28 04:59:33;;;;;;;35.40;13.30;;;;;;;1.26;67.15;100211.46;67561;1282;1016432;-59
2023/02/28 05:02:36;;;;;;;36.40;11.90;;;;;;;1.31;67.31;100214.04;67563;1281;1016562;-59
2023/02/28 05:05:38;;;;;;;31.20;10.30;;;;;;;1.31;67.44;100219.73;67545;1282;1018548;-60
2023/02/28 05:08:41;;;;;;;35.40;12.50;;;;;;;1.15;67.51;100223.52;67520;1281;1016414;-59
2023/02/28 05:11:43;;;;;;;34.70;11.20;;;;;;;0.95;68.01;100222.48;67566;1282;1016238;-59
2023/02/28 05:14:46;;;;;;;32.10;11.90;;;;;;;0.97;68.12;100229.20;67578;1281;1016398;-59
2023/02/28 05:17:48;;;;;;;35.00;12.30;;;;;;;1.13;67.45;100232.48;67561;1281;1016495;-59
2023/02/28 05:20:50;;;;;;;35.00;12.10;;;;;;;1.18;66.87;100231.80;67564;1281;1016459;-59
2023/02/28 05:23:53;;;;;;;38.20;12.80;;;;;;;1.11;66.85;100234.73;67548;1281;1016461;-59
2023/02/28 05:26:55;;;;;;;36.40;13.00;;;;;;;1.05;66.64;100235.59;67539;1282;1016580;-59
2023/02/28 05:29:58;;;;;;;36.70;13.70;;;;;;;1.03;67.03;100236.63;67545;1282;1016040;-59
2023/02/28 05:33:01;;;;;;;43.20;13.60;;;;;;;0.96;67.24;100239.55;67362;1281;1016928;-61
2023/02/28 05:36:03;;;;;;;41.70;14.80;;;;;;;1.03;67.13;100240.41;67559;1281;1016013;-60
2023/02/28 05:39:06;;;;;;;50.60;15.10;;;;;;;1.05;67.40;100242.48;67595;1281;1016316;-59
2023/02/28 05:42:09;;;;;;;47.70;18.80;;;;;;;1.10;67.28;100246.10;67575;1281;1016008;-59
2023/02/28 05:45:11;;;;;;;45.70;15.20;;;;;;;1.08;67.67;100248.69;67524;1281;1016455;-60
2023/02/28 05:48:13;;;;;;;45.40;15.30;;;;;;;1.17;67.28;100252.99;67562;1282;1016280;-60
2023/02/28 05:51:16;;;;;;;56.70;18.50;;;;;;;1.21;67.37;100255.05;67562;1282;1017051;-60
2023/02/28 05:54:18;;;;;;;54.40;18.10;;;;;;;1.16;67.68;100256.27;67566;1282;1016463;-59
2023/02/28 05:57:21;;;;;;;51.20;18.00;;;;;;;1.09;67.52;100259.02;67527;1282;1016273;-59
2023/02/28 06:00:23;;;;;;;59.20;18.70;;;;;;;1.24;67.82;100264.02;67517;1282;1016438;-59
2023/02/28 06:03:26;;;;;;;48.50;17.30;;;;;;;1.22;67.82;100266.61;67555;1282;1016416;-60
2023/02/28 06:06:29;;;;;;;55.10;16.70;;;;;;;1.25;67.94;100271.10;67560;1282;1016363;-59
2023/02/28 06:09:31;;;;;;;52.60;18.20;;;;;;;1.28;68.08;100276.27;67525;1282;1018222;-59
2023/02/28 06:12:34;;;;;;;51.60;17.40;;;;;;;1.39;67.81;100280.91;67537;1282;1016418;-60
2023/02/28 06:15:36;;;;;;;49.90;19.60;;;;;;;1.45;67.93;100289.70;67559;1282;1016401;-60
2023/02/28 06:18:39;;;;;;;67.80;21.70;;;;;;;1.62;68.45;100292.95;67553;1282;1016203;-59
2023/02/28 06:21:41;;;;;;;68.00;25.00;;;;;;;1.93;68.51;100291.55;67522;1281;1016416;-60
2023/02/28 06:24:43;;;;;;;123.40;45.60;;;;;;;2.24;67.81;100291.62;67492;1282;1016285;-59
2023/02/28 06:27:46;;;;;;;60.50;23.00;;;;;;;2.52;67.45;100295.48;67553;1282;1016361;-59
2023/02/28 06:30:48;;;;;;;52.10;20.10;;;;;;;2.75;67.08;100298.13;67579;1282;1016420;-59
2023/02/28 06:33:51;;;;;;;55.10;22.80;;;;;;;2.80;66.67;100301.55;67544;1281;1016417;-59
2023/02/28 06:36:53;;;;;;;51.70;21.20;;;;;;;2.83;67.08;100302.75;67508;1282;1016435;-59
2023/02/28 06:39:56;;;;;;;140.90;49.10;;;;;;;3.04;66.53;100304.36;67528;1282;1016369;-60
2023/02/28 06:42:59;;;;;;;114.60;42.60;;;;;;;3.07;66.53;100303.30;67560;1282;1016233;-59
2023/02/28 06:46:01;;;;;;;106.20;34.20;;;;;;;3.30;66.44;100303.13;67535;1282;1016900;-59
2023/02/28 06:49:04;;;;;;;125.20;32.10;;;;;;;3.56;66.17;100305.52;67540;1281;1016393;-60
2023/02/28 06:52:08;;;;;;;104.20;31.50;;;;;;;3.68;66.15;100304.73;67582;1281;1016377;-59
2023/02/28 06:55:10;;;;;;;87.40;26.80;;;;;;;3.75;65.85;100304.14;67593;1281;1016321;-59
2023/02/28 06:58:15;;;;;;;74.60;23.20;;;;;;;3.94;66.37;100303.44;67566;1281;1018255;-59
2023/02/28 07:01:18;;;;;;;61.30;20.20;;;;;;;4.29;66.53;100300.29;67537;1281;1016359;-60
2023/02/28 07:04:21;;;;;;;46.80;16.00;;;;;;;4.64;65.62;100299.15;67588;1281;1016365;-59
2023/02/28 07:07:23;;;;;;;53.30;18.00;;;;;;;4.97;65.69;100298.54;67581;1281;1016588;-59
2023/02/28 07:10:26;;;;;;;58.30;18.70;;;;;;;5.28;64.83;100302.77;67541;1281;1016352;-59
2023/02/28 07:13:28;;;;;;;;;;;;;;;5.31;64.22;100301.84;67572;1281;1016692;-59
2023/02/28 07:16:31;;;;;;;41.90;14.70;;;;;;;5.40;62.69;100300.13;67592;1282;1016441;-59
2023/02/28 07:19:34;;;;;;;40.60;14.90;;;;;;;5.34;61.18;100305.09;67591;1281;1016183;-59
2023/02/28 07:22:43;;;;;;;59.30;20.50;;;;;;;5.14;61.05;100301.41;67533;1282;1015888;-59
2023/02/28 07:25:46;;;;;;;40.10;14.50;;;;;;;5.18;62.55;100301.00;67582;1281;1016190;-59
2023/02/28 07:28:49;;;;;;;35.50;12.80;;;;;;;5.41;62.96;100304.45;67557;1281;1017016;-59
2023/02/28 07:31:52;;;;;;;38.40;13.80;;;;;;;5.73;62.38;100306.35;67581;1281;1016799;-59
2023/02/28 07:34:55;;;;;;;36.20;12.60;;;;;;;5.87;60.89;100308.89;67577;1281;1016247;-60
2023/02/28 07:37:57;;;;;;;37.30;13.40;;;;;;;5.85;61.58;100309.27;67590;1281;1016833;-59
2023/02/28 07:41:00;;;;;;;33.50;11.60;;;;;;;5.94;61.57;100304.61;67603;1281;1016216;-60
2023/02/28 07:44:03;;;;;;;30.10;10.60;;;;;;;6.05;61.02;100306.16;67550;1281;1016235;-59
2023/02/28 07:47:05;;;;;;;32.10;10.90;;;;;;;6.24;60.68;100301.80;67573;1281;1016023;-59
2023/02/28 07:50:07;;;;;;;34.80;11.60;;;;;;;6.49;60.26;100298.52;67567;1281;1016489;-59
2023/02/28 07:53:10;;;;;;;33.30;11.90;;;;;;;6.62;60.08;100300.00;67556;1281;1016485;-59
2023/02/28 07:56:12;;;;;;;31.50;12.40;;;;;;;6.84;59.73;100300.92;67511;1281;1016878;-59
2023/02/28 07:59:16;;;;;;;29.10;10.50;;;;;;;7.01;59.26;100297.05;67569;1281;1016499;-60
2023/02/28 08:02:18;;;;;;;30.90;10.80;;;;;;;7.16;59.50;100295.15;67560;1281;1017864;-59
2023/02/28 08:05:21;;;;;;;27.30;10.20;;;;;;;7.24;58.57;100297.92;67548;1281;1016291;-59
2023/02/28 08:08:31;;;;;;;30.30;10.30;;;;;;;7.36;58.97;100292.42;67621;1282;1016716;-59
2023/02/28 08:11:34;;;;;;;30.60;11.60;;;;;;;7.50;58.96;100293.81;67539;1282;1016508;-59
2023/02/28 08:14:37;;;;;;;32.90;11.00;;;;;;;7.61;58.90;100294.76;67559;1282;1016505;-60
2023/02/28 08:17:39;;;;;;;28.20;10.50;;;;;;;7.72;58.86;100288.89;67591;1281;1016612;-59
2023/02/28 08:20:42;;;;;;;28.70;9.30;;;;;;;7.90;58.05;100291.38;67581;1282;1016470;-59
2023/02/28 08:23:44;;;;;;;27.90;10.20;;;;;;;7.97;56.81;100287.02;67583;1282;1016525;-60
2023/02/28 08:26:47;;;;;;;26.60;10.00;;;;;;;8.13;56.66;100289.73;67568;1282;1016181;-60
2023/02/28 08:29:49;;;;;;;31.40;10.40;;;;;;;8.17;56.35;100290.65;67560;1281;1016456;-59
2023/02/28 08:32:52;;;;;;;29.00;9.90;;;;;;;8.20;56.94;100286.41;67593;1282;1016408;-60
2023/02/28 08:35:55;;;;;;;32.70;10.60;;;;;;;8.30;55.87;100286.98;67574;1281;1016425;-59
2023/02/28 08:38:59;;;;;;;26.80;9.20;;;;;;;8.14;55.85;100290.39;67538;1282;1016101;-60
2023/02/28 08:42:02;;;;;;;30.10;10.70;;;;;;;8.30;56.28;100282.47;67584;1281;1016383;-60
2023/02/28 08:45:04;;;;;;;25.50;8.10;;;;;;;8.42;55.25;100285.96;67588;1282;1016376;-60
2023/02/28 08:48:07;;;;;;;25.40;7.70;;;;;;;8.57;54.73;100286.26;67516;1281;1016449;-60
2023/02/28 08:51:09;;;;;;;26.10;8.50;;;;;;;8.73;54.14;100283.16;67517;1282;1016431;-60
2023/02/28 08:54:14;;;;;;;25.70;8.30;;;;;;;8.79;53.03;100283.16;67590;1281;1016536;-60
2023/02/28 08:57:17;;;;;;;25.60;8.50;;;;;;;8.45;50.38;100285.19;67566;1282;1016395;-59
2023/02/28 09:00:20;;;;;;;23.20;8.20;;;;;;;8.10;51.02;100284.41;67574;1282;1018914;-60
2023/02/28 09:03:22;;;;;;;24.90;8.00;;;;;;;8.32;51.78;100286.77;67604;1282;1016489;-60
2023/02/28 09:06:25;;;;;;;;;;;;;;;8.47;51.77;100280.79;67524;1282;1016359;-60
2023/02/28 09:09:27;;;;;;;29.90;8.90;;;;;;;8.59;53.51;100278.86;67570;1281;1015768;-60
2023/02/28 09:12:30;;;;;;;24.80;8.80;;;;;;;9.02;52.98;100284.19;67566;1282;1016484;-60
2023/02/28 09:15:33;;;;;;;31.00;10.70;;;;;;;9.25;51.80;100284.86;67583;1282;1016299;-60
2023/02/28 09:18:35;;;;;;;23.60;8.30;;;;;;;9.41;52.21;100281.92;67537;1281;1016491;-60
2023/02/28 09:21:38;;;;;;;24.80;7.80;;;;;;;9.61;52.02;100282.47;67580;1281;1016460;-60
2023/02/28 09:24:41;;;;;;;25.30;7.70;;;;;;;9.80;51.93;100277.11;67560;1282;1016447;-60
2023/02/28 09:27:45;;;;;;;;;;;;;;;9.77;50.02;100278.94;67551;1282;1016475;-60
2023/02/28 09:30:47;;;;;;;23.30;7.40;;;;;;;9.69;49.97;100282.20;67542;1281;1016283;-60
2023/02/28 09:33:50;;;;;;;24.40;7.90;;;;;;;9.57;50.46;100279.98;67591;1281;1016447;-59
2023/02/28 09:36:54;;;;;;;25.90;8.90;;;;;;;9.55;50.86;100276.20;67575;1281;1016475;-60
2023/02/28 09:39:56;;;;;;;24.60;8.10;;;;;;;9.74;50.53;100273.11;67570;1281;1016525;-60
2023/02/28 09:42:59;;;;;;;25.00;8.60;;;;;;;9.95;50.24;100274.81;67548;1281;1016397;-60
2023/02/28 09:46:01;;;;;;;39.60;15.50;;;;;;;9.90;51.19;100271.34;67564;1282;1016278;-60
2023/02/28 09:49:04;;;;;;;24.20;9.20;;;;;;;9.83;49.16;100268.27;67601;1281;1016542;-60
2023/02/28 09:52:08;;;;;;;26.60;10.00;;;;;;;9.72;50.10;100267.61;67604;1281;1016635;-60
2023/02/28 09:55:11;;;;;;;35.20;11.80;;;;;;;9.94;49.85;100264.39;67536;1281;1016127;-59
2023/02/28 09:58:13;;;;;;;30.70;11.10;;;;;;;10.20;49.70;100257.52;67533;1281;1016282;-60
2023/02/28 10:01:16;;;;;;;26.50;10.00;;;;;;;10.29;48.62;100258.41;67546;1282;1016441;-60
2023/02/28 10:04:18;;;;;;;26.90;8.90;;;;;;;9.92;46.69;100259.54;67582;1281;1016363;-60
2023/02/28 10:07:20;;;;;;;26.00;8.90;;;;;;;9.73;49.12;100263.19;67550;1281;1016445;-59
2023/02/28 10:10:23;;;;;;;25.30;9.00;;;;;;;10.13;48.50;100261.63;67554;1281;1016260;-60
2023/02/28 10:13:25;;;;;;;23.60;8.40;;;;;;;10.18;47.04;100258.64;67542;1281;1016416;-60
2023/02/28 10:16:28;;;;;;;81.50;36.80;;;;;;;9.96;48.77;100260.45;67536;1281;1016510;-59
2023/02/28 10:19:32;;;;;;;28.70;10.20;;;;;;;10.04;46.15;100256.67;67561;1282;1016444;-60
2023/02/28 10:22:34;;;;;;;25.70;9.70;;;;;;;10.17;47.50;100253.25;67547;1282;1016550;-60
2023/02/28 10:25:37;;;;;;;28.60;11.20;;;;;;;10.19;46.72;100255.08;67559;1282;1016388;-60
2023/02/28 10:28:39;;;;;;;26.90;9.60;;;;;;;10.13;46.96;100256.39;67552;1282;1016297;-60
2023/02/28 10:31:42;;;;;;;28.80;10.70;;;;;;;10.13;46.13;100256.54;67549;1282;1016355;-60
2023/02/28 10:34:44;;;;;;;27.70;10.50;;;;;;;10.12;45.69;100260.23;67581;1281;1016070;-60
2023/02/28 10:37:47;;;;;;;27.50;9.70;;;;;;;10.25;46.57;100254.38;67570;1282;1016365;-60
2023/02/28 10:40:49;;;;;;;29.60;10.50;;;;;;;10.45;46.25;100254.71;67541;1281;1016361;-60
2023/02/28 10:43:51;;;;;;;26.00;9.40;;;;;;;10.11;43.36;100252.07;67532;1282;1016175;-60
2023/02/28 10:46:54;;;;;;;28.30;9.80;;;;;;;9.67;43.44;100253.10;67545;1282;1016338;-60
2023/02/28 10:49:56;;;;;;;26.90;10.30;;;;;;;9.50;44.32;100253.84;67594;1282;1016416;-60
2023/02/28 10:52:59;;;;;;;25.40;9.10;;;;;;;9.68;44.76;100244.86;67582;1282;1016481;-61
2023/02/28 10:56:01;;;;;;;26.90;9.50;;;;;;;9.90;45.03;100242.85;67537;1282;1016444;-60
2023/02/28 10:59:04;;;;;;;;;;;;;;;9.96;43.97;100242.11;67582;1282;1016476;-60
2023/02/28 11:02:06;;;;;;;25.70;9.30;;;;;;;9.67;43.59;100240.19;67588;1282;1016520;-60
2023/02/28 11:05:09;;;;;;;25.60;9.70;;;;;;;9.47;42.57;100244.34;67555;1282;1016504;-60
2023/02/28 11:08:12;;;;;;;26.10;9.80;;;;;;;9.46;42.90;100240.52;67559;1282;1016146;-60
2023/02/28 11:11:16;;;;;;;25.60;9.30;;;;;;;9.20;41.86;100243.30;67584;1282;1016508;-60
2023/02/28 11:14:19;;;;;;;26.80;9.40;;;;;;;9.07;41.92;100240.79;67532;1281;1018013;-62
2023/02/28 11:17:21;;;;;;;28.70;10.70;;;;;;;8.99;42.68;100236.66;67572;1281;1020902;-61
2023/02/28 11:20:24;;;;;;;26.20;10.30;;;;;;;9.51;43.96;100230.58;67534;1282;1016380;-60
2023/02/28 11:23:27;;;;;;;25.90;9.70;;;;;;;9.98;42.70;100229.13;67561;1282;1016485;-61
2023/02/28 11:26:30;;;;;;;24.50;9.10;;;;;;;10.07;41.08;100230.21;67541;1281;1016295;-61
2023/02/28 11:29:32;;;;;;;28.80;9.50;;;;;;;9.86;41.79;100228.34;67525;1282;1016489;-60
2023/02/28 11:32:35;;;;;;;25.20;9.50;;;;;;;9.88;42.00;100224.40;67579;1281;1016563;-60
2023/02/28 11:35:37;;;;;;;27.60;9.60;;;;;;;9.73;41.13;100224.59;67568;1281;1016339;-59
2023/02/28 11:38:39;;;;;;;26.90;10.30;;;;;;;9.68;41.49;100222.66;67563;1281;1016406;-60
2023/02/28 11:41:42;;;;;;;28.00;10.00;;;;;;;9.95;41.69;100220.33;67564;1281;1016384;-60
2023/02/28 11:44:45;;;;;;;26.10;10.10;;;;;;;10.07;41.48;100220.08;67606;1281;1016508;-60
2023/02/28 11:48:09;;;;;;;27.30;10.00;;;;;;;10.15;41.74;100221.70;67563;1281;1016469;-60
2023/02/28 11:51:11;;;;;;;26.20;9.30;;;;;;;10.31;41.01;100222.36;67615;1281;1016705;-60
2023/02/28 11:54:14;;;;;;;25.90;9.50;;;;;;;10.29;41.28;100222.06;67573;1281;1016336;-60
2023/02/28 11:57:16;;;;;;;24.30;9.70;;;;;;;10.35;41.42;100221.83;67596;1281;1018064;-60
2023/02/28 12:00:19;;;;;;;23.80;8.80;;;;;;;10.39;41.15;100216.11;67608;1282;1018519;-60
2023/02/28 12:03:22;;;;;;;;;;;;;;;10.06;40.99;100212.23;67567;1281;1016326;-60
2023/02/28 12:06:24;;;;;;;26.20;9.10;;;;;;;9.77;41.08;100206.80;67557;1282;1016140;-60
2023/02/28 12:09:27;;;;;;;;;;;;;;;9.39;41.60;100203.59;67604;1281;1016278;-60
2023/02/28 12:12:29;;;;;;;26.40;8.50;;;;;;;8.94;41.52;100204.19;67619;1281;1016388;-60
2023/02/28 12:15:32;;;;;;;23.80;8.40;;;;;;;8.63;41.45;100196.27;67551;1281;1016833;-60
2023/02/28 12:18:35;;;;;;;;;;;;;;;8.57;42.51;100192.63;67566;1281;1016121;-60
2023/02/28 12:21:38;;;;;;;25.50;9.70;;;;;;;8.84;42.41;100184.63;67597;1281;1016373;-60
2023/02/28 12:24:40;;;;;;;25.50;9.30;;;;;;;9.14;42.52;100183.30;67613;1281;1016550;-60
2023/02/28 12:27:42;;;;;;;30.60;10.80;;;;;;;9.59;41.21;100181.77;67552;1281;1016393;-60
2023/02/28 12:30:45;;;;;;;28.00;11.10;;;;;;;9.47;41.16;100182.38;67546;1281;1016339;-60
2023/02/28 12:33:48;;;;;;;28.00;10.70;;;;;;;9.45;41.43;100179.63;67610;1282;1015840;-59
2023/02/28 12:36:51;;;;;;;28.90;11.50;;;;;;;9.66;41.17;100174.19;67552;1282;1016350;-60
2023/02/28 12:39:54;;;;;;;30.50;10.60;;;;;;;10.08;41.42;100171.60;67581;1281;1016489;-60
2023/02/28 12:42:57;;;;;;;28.80;11.10;;;;;;;10.58;41.65;100169.02;67593;1282;1016930;-60
2023/02/28 12:45:59;;;;;;;30.20;11.00;;;;;;;11.17;41.03;100167.53;67536;1281;1016835;-60
2023/02/28 12:49:02;;;;;;;31.30;11.30;;;;;;;11.24;39.19;100161.97;67566;1282;1016322;-60
2023/02/28 12:52:04;;;;;;;28.90;12.20;;;;;;;10.98;39.79;100153.27;67571;1281;1016992;-60
2023/02/28 12:55:07;;;;;;;;;;;;;;;11.01;40.25;100151.02;67578;1282;1016151;-60
2023/02/28 12:58:09;;;;;;;29.30;11.10;;;;;;;10.91;38.94;100155.46;67547;1282;1016371;-60
2023/02/28 13:01:11;;;;;;;27.30;10.30;;;;;;;11.01;40.22;100148.95;67533;1282;1016689;-60
2023/02/28 13:04:14;;;;;;;28.70;11.60;;;;;;;11.24;39.54;100149.89;67590;1282;1016419;-60
2023/02/28 13:07:17;;;;;;;29.70;11.00;;;;;;;11.21;38.94;100144.42;67624;1281;1016663;-60
2023/02/28 13:10:19;;;;;;;;;;;;;;;11.50;39.67;100141.77;67555;1282;1016453;-60
2023/02/28 13:13:22;;;;;;;25.40;10.10;;;;;;;11.74;39.14;100140.73;67600;1281;1016471;-60
2023/02/28 13:16:24;;;;;;;28.30;11.10;;;;;;;12.07;39.28;100138.03;67586;1282;1016259;-60
2023/02/28 13:19:28;;;;;;;27.90;10.00;;;;;;;12.39;39.31;100135.83;67629;1282;1016502;-60
2023/02/28 13:22:30;;;;;;;26.30;10.40;;;;;;;12.66;38.85;100136.27;67604;1282;1016413;-60
2023/02/28 13:25:33;;;;;;;28.20;11.00;;;;;;;12.62;37.78;100133.15;67598;1282;1016179;-60
2023/02/28 13:28:35;;;;;;;26.90;9.70;;;;;;;12.52;37.80;100131.73;67562;1282;1016484;-60
2023/02/28 13:31:38;;;;;;;24.60;9.50;;;;;;;12.01;35.93;100134.95;67562;1282;1019797;-60
2023/02/28 13:34:40;;;;;;;27.30;10.30;;;;;;;11.24;36.86;100133.10;67603;1282;1016419;-60
2023/02/28 13:37:43;;;;;;;26.10;10.40;;;;;;;11.34;37.88;100127.77;67591;1282;1016440;-60
2023/02/28 13:40:45;;;;;;;;;;;;;;;11.71;38.84;100121.04;67556;1282;1016271;-60
2023/02/28 13:43:48;;;;;;;27.70;10.60;;;;;;;11.98;38.05;100117.93;67596;1282;1016636;-60
2023/02/28 13:46:50;;;;;;;27.10;9.20;;;;;;;11.92;38.40;100121.19;67589;1282;1016275;-60